sensor_id;sensor_type;location;lat;lon;timestamp;temperature;humidity
75457;SHT31;64036;48.266;14.192;2023-03-14T00:00:07;8.29;63.56
75457;SHT31;64036;48.266;14.192;2023-03-14T00:02:36;8.19;64.07
75457;SHT31;64036;48.266;14.192;2023-03-14T00:05:11;8.09;64.68
75457;SHT31;64036;48.266;14.192;2023-03-14T00:07:37;8.02;65.16
75457;SHT31;64036;48.266;14.192;2023-03-14T00:10:08;7.94;65.93
75457;SHT31;64036;48.266;14.192;2023-03-14T00:12:37;7.84;66.97
75457;SHT31;64036;48.266;14.192;2023-03-14T00:15:03;7.74;67.97
75457;SHT31;64036;48.266;14.192;2023-03-14T00:17:34;7.67;69.02
75457;SHT31;64036;48.266;14.192;2023-03-14T00:20:05;7.62;69.29
75457;SHT31;64036;48.266;14.192;2023-03-14T00:22:39;7.57;69.84
75457;SHT31;64036;48.266;14.192;2023-03-14T00:25:07;7.52;70.32
75457;SHT31;64036;48.266;14.192;2023-03-14T00:27:37;7.47;70.55
75457;SHT31;64036;48.266;14.192;2023-03-14T00:30:03;7.42;70.97
75457;SHT31;64036;48.266;14.192;2023-03-14T00:32:32;7.37;71.34
75457;SHT31;64036;48.266;14.192;2023-03-14T00:34:59;7.32;71.90
75457;SHT31;64036;48.266;14.192;2023-03-14T00:37:26;7.30;71.79
75457;SHT31;64036;48.266;14.192;2023-03-14T00:39:53;7.24;71.94
75457;SHT31;64036;48.266;14.192;2023-03-14T00:42:21;7.18;71.99
75457;SHT31;64036;48.266;14.192;2023-03-14T00:44:47;7.14;72.11
75457;SHT31;64036;48.266;14.192;2023-03-14T00:47:13;7.09;72.50
75457;SHT31;64036;48.266;14.192;2023-03-14T00:49:41;7.08;72.66
75457;SHT31;64036;48.266;14.192;2023-03-14T00:52:10;7.07;72.84
75457;SHT31;64036;48.266;14.192;2023-03-14T00:54:39;7.08;73.15
75457;SHT31;64036;48.266;14.192;2023-03-14T00:57:05;7.08;73.40
75457;SHT31;64036;48.266;14.192;2023-03-14T00:59:31;7.10;73.09
75457;SHT31;64036;48.266;14.192;2023-03-14T01:01:57;7.19;72.53
75457;SHT31;64036;48.266;14.192;2023-03-14T01:04:23;7.29;72.16
75457;SHT31;64036;48.266;14.192;2023-03-14T01:06:51;7.39;71.70
75457;SHT31;64036;48.266;14.192;2023-03-14T01:09:17;7.45;71.36
75457;SHT31;64036;48.266;14.192;2023-03-14T01:11:43;7.47;71.16
75457;SHT31;64036;48.266;14.192;2023-03-14T01:14:11;7.51;70.90
75457;SHT31;64036;48.266;14.192;2023-03-14T01:16:37;7.50;70.79
75457;SHT31;64036;48.266;14.192;2023-03-14T01:19:04;7.49;70.80
75457;SHT31;64036;48.266;14.192;2023-03-14T01:21:36;7.46;70.87
75457;SHT31;64036;48.266;14.192;2023-03-14T01:24:05;7.48;70.79
75457;SHT31;64036;48.266;14.192;2023-03-14T01:26:34;7.54;70.68
75457;SHT31;64036;48.266;14.192;2023-03-14T01:29:01;7.54;70.58
75457;SHT31;64036;48.266;14.192;2023-03-14T01:31:34;7.55;70.54
75457;SHT31;64036;48.266;14.192;2023-03-14T01:34:00;7.55;70.46
75457;SHT31;64036;48.266;14.192;2023-03-14T01:36:29;7.54;70.42
75457;SHT31;64036;48.266;14.192;2023-03-14T01:38:57;7.58;70.31
75457;SHT31;64036;48.266;14.192;2023-03-14T01:41:24;7.60;70.20
75457;SHT31;64036;48.266;14.192;2023-03-14T01:43:51;7.62;70.12
75457;SHT31;64036;48.266;14.192;2023-03-14T01:52:02;7.58;69.97
75457;SHT31;64036;48.266;14.192;2023-03-14T01:54:43;7.55;70.09
75457;SHT31;64036;48.266;14.192;2023-03-14T01:57:27;7.51;70.21
75457;SHT31;64036;48.266;14.192;2023-03-14T01:59:59;7.48;70.32
75457;SHT31;64036;48.266;14.192;2023-03-14T02:02:36;7.44;70.51
75457;SHT31;64036;48.266;14.192;2023-03-14T02:05:08;7.42;70.66
75457;SHT31;64036;48.266;14.192;2023-03-14T02:07:45;7.42;70.73
75457;SHT31;64036;48.266;14.192;2023-03-14T02:10:16;7.42;70.76
75457;SHT31;64036;48.266;14.192;2023-03-14T02:12:49;7.43;70.77
75457;SHT31;64036;48.266;14.192;2023-03-14T02:15:17;7.44;70.73
75457;SHT31;64036;48.266;14.192;2023-03-14T02:17:43;7.43;70.80
75457;SHT31;64036;48.266;14.192;2023-03-14T02:22:47;7.33;71.07
75457;SHT31;64036;48.266;14.192;2023-03-14T02:28:19;7.14;71.93
75457;SHT31;64036;48.266;14.192;2023-03-14T02:30:46;7.05;71.90
75457;SHT31;64036;48.266;14.192;2023-03-14T02:33:19;7.05;71.93
75457;SHT31;64036;48.266;14.192;2023-03-14T02:36:07;7.02;72.00
75457;SHT31;64036;48.266;14.192;2023-03-14T02:38:43;7.00;72.03
75457;SHT31;64036;48.266;14.192;2023-03-14T02:41:13;6.97;72.20
75457;SHT31;64036;48.266;14.192;2023-03-14T02:43:40;6.94;72.52
75457;SHT31;64036;48.266;14.192;2023-03-14T02:46:07;6.95;72.80
75457;SHT31;64036;48.266;14.192;2023-03-14T02:49:11;6.93;72.81
75457;SHT31;64036;48.266;14.192;2023-03-14T02:51:37;6.93;72.80
75457;SHT31;64036;48.266;14.192;2023-03-14T02:54:05;6.94;72.87
75457;SHT31;64036;48.266;14.192;2023-03-14T02:56:32;6.95;73.01
75457;SHT31;64036;48.266;14.192;2023-03-14T02:58:57;7.01;73.16
75457;SHT31;64036;48.266;14.192;2023-03-14T03:01:24;7.07;73.40
75457;SHT31;64036;48.266;14.192;2023-03-14T03:03:55;7.17;73.44
75457;SHT31;64036;48.266;14.192;2023-03-14T03:06:21;7.27;73.40
75457;SHT31;64036;48.266;14.192;2023-03-14T03:08:49;7.36;73.40
75457;SHT31;64036;48.266;14.192;2023-03-14T03:11:18;7.44;73.36
75457;SHT31;64036;48.266;14.192;2023-03-14T03:13:47;7.49;73.22
75457;SHT31;64036;48.266;14.192;2023-03-14T03:16:12;7.54;73.06
75457;SHT31;64036;48.266;14.192;2023-03-14T03:18:43;7.57;72.93
75457;SHT31;64036;48.266;14.192;2023-03-14T03:21:25;7.59;72.84
75457;SHT31;64036;48.266;14.192;2023-03-14T03:23:52;7.60;72.78
75457;SHT31;64036;48.266;14.192;2023-03-14T03:26:18;7.62;72.74
75457;SHT31;64036;48.266;14.192;2023-03-14T03:28:43;7.65;72.80
75457;SHT31;64036;48.266;14.192;2023-03-14T03:31:15;7.69;72.77
75457;SHT31;64036;48.266;14.192;2023-03-14T03:33:40;7.76;72.91
75457;SHT31;64036;48.266;14.192;2023-03-14T03:36:07;7.84;72.94
75457;SHT31;64036;48.266;14.192;2023-03-14T03:38:34;7.93;72.90
75457;SHT31;64036;48.266;14.192;2023-03-14T03:41:06;8.01;72.81
75457;SHT31;64036;48.266;14.192;2023-03-14T03:43:33;8.09;72.78
75457;SHT31;64036;48.266;14.192;2023-03-14T03:46:02;8.20;72.70
75457;SHT31;64036;48.266;14.192;2023-03-14T03:48:30;8.30;72.51
75457;SHT31;64036;48.266;14.192;2023-03-14T03:50:56;8.39;72.39
75457;SHT31;64036;48.266;14.192;2023-03-14T03:53:22;8.44;72.24
75457;SHT31;64036;48.266;14.192;2023-03-14T03:55:47;8.51;72.08
75457;SHT31;64036;48.266;14.192;2023-03-14T03:58:13;8.58;71.94
75457;SHT31;64036;48.266;14.192;2023-03-14T04:00:39;8.63;71.84
75457;SHT31;64036;48.266;14.192;2023-03-14T04:03:05;8.68;71.68
75457;SHT31;64036;48.266;14.192;2023-03-14T04:05:31;8.73;71.54
75457;SHT31;64036;48.266;14.192;2023-03-14T04:07:59;8.77;71.41
75457;SHT31;64036;48.266;14.192;2023-03-14T04:10:26;8.83;71.36
75457;SHT31;64036;48.266;14.192;2023-03-14T04:12:52;8.86;71.23
75457;SHT31;64036;48.266;14.192;2023-03-14T04:15:18;8.88;71.17
75457;SHT31;64036;48.266;14.192;2023-03-14T04:17:43;8.90;71.03
75457;SHT31;64036;48.266;14.192;2023-03-14T04:20:10;8.93;70.93
75457;SHT31;64036;48.266;14.192;2023-03-14T04:22:39;8.95;70.92
75457;SHT31;64036;48.266;14.192;2023-03-14T04:25:06;8.98;70.91
75457;SHT31;64036;48.266;14.192;2023-03-14T04:27:33;9.01;70.74
75457;SHT31;64036;48.266;14.192;2023-03-14T04:29:58;9.03;70.62
75457;SHT31;64036;48.266;14.192;2023-03-14T04:32:24;9.04;70.69
75457;SHT31;64036;48.266;14.192;2023-03-14T04:34:50;9.06;70.62
75457;SHT31;64036;48.266;14.192;2023-03-14T04:37:16;9.10;70.58
75457;SHT31;64036;48.266;14.192;2023-03-14T04:39:42;9.12;70.52
75457;SHT31;64036;48.266;14.192;2023-03-14T04:42:08;9.11;70.48
75457;SHT31;64036;48.266;14.192;2023-03-14T04:44:34;9.12;70.38
75457;SHT31;64036;48.266;14.192;2023-03-14T04:47:00;9.14;70.30
75457;SHT31;64036;48.266;14.192;2023-03-14T04:49:28;9.16;70.22
75457;SHT31;64036;48.266;14.192;2023-03-14T04:51:53;9.18;70.20
75457;SHT31;64036;48.266;14.192;2023-03-14T04:54:19;9.16;70.20
75457;SHT31;64036;48.266;14.192;2023-03-14T04:56:45;9.15;70.32
75457;SHT31;64036;48.266;14.192;2023-03-14T04:59:11;9.14;70.69
75457;SHT31;64036;48.266;14.192;2023-03-14T05:01:39;9.12;71.02
75457;SHT31;64036;48.266;14.192;2023-03-14T05:04:06;9.10;71.24
75457;SHT31;64036;48.266;14.192;2023-03-14T05:06:32;9.05;71.57
75457;SHT31;64036;48.266;14.192;2023-03-14T05:08:58;9.03;71.98
75457;SHT31;64036;48.266;14.192;2023-03-14T05:11:23;9.05;72.41
75457;SHT31;64036;48.266;14.192;2023-03-14T05:13:49;9.08;72.92
75457;SHT31;64036;48.266;14.192;2023-03-14T05:16:15;9.10;73.38
75457;SHT31;64036;48.266;14.192;2023-03-14T05:18:41;9.10;73.67
75457;SHT31;64036;48.266;14.192;2023-03-14T05:21:06;9.12;73.76
75457;SHT31;64036;48.266;14.192;2023-03-14T05:23:32;9.14;73.82
75457;SHT31;64036;48.266;14.192;2023-03-14T05:25:58;9.16;73.97
75457;SHT31;64036;48.266;14.192;2023-03-14T05:28:24;9.19;74.17
75457;SHT31;64036;48.266;14.192;2023-03-14T05:30:49;9.18;74.60
75457;SHT31;64036;48.266;14.192;2023-03-14T05:33:15;9.17;75.09
75457;SHT31;64036;48.266;14.192;2023-03-14T05:35:42;9.17;75.53
75457;SHT31;64036;48.266;14.192;2023-03-14T05:38:08;9.20;75.92
75457;SHT31;64036;48.266;14.192;2023-03-14T05:40:34;9.23;76.32
75457;SHT31;64036;48.266;14.192;2023-03-14T05:43:00;9.25;76.80
75457;SHT31;64036;48.266;14.192;2023-03-14T05:45:26;9.29;77.03
75457;SHT31;64036;48.266;14.192;2023-03-14T05:47:54;9.33;77.23
75457;SHT31;64036;48.266;14.192;2023-03-14T05:50:20;9.36;77.40
75457;SHT31;64036;48.266;14.192;2023-03-14T05:52:46;9.42;77.62
75457;SHT31;64036;48.266;14.192;2023-03-14T05:55:11;9.47;77.72
75457;SHT31;64036;48.266;14.192;2023-03-14T05:57:37;9.51;77.94
75457;SHT31;64036;48.266;14.192;2023-03-14T06:00:03;9.56;78.03
75457;SHT31;64036;48.266;14.192;2023-03-14T06:02:29;9.62;78.09
75457;SHT31;64036;48.266;14.192;2023-03-14T06:04:55;9.68;78.10
75457;SHT31;64036;48.266;14.192;2023-03-14T06:07:21;9.75;78.09
75457;SHT31;64036;48.266;14.192;2023-03-14T06:09:47;9.81;78.08
75457;SHT31;64036;48.266;14.192;2023-03-14T06:12:13;9.86;78.17
75457;SHT31;64036;48.266;14.192;2023-03-14T06:14:38;9.90;78.21
75457;SHT31;64036;48.266;14.192;2023-03-14T06:17:04;9.94;78.21
75457;SHT31;64036;48.266;14.192;2023-03-14T06:19:30;9.99;78.12
75457;SHT31;64036;48.266;14.192;2023-03-14T06:21:56;10.03;78.07
75457;SHT31;64036;48.266;14.192;2023-03-14T06:24:21;10.07;78.07
75457;SHT31;64036;48.266;14.192;2023-03-14T06:26:47;10.15;78.14
75457;SHT31;64036;48.266;14.192;2023-03-14T06:29:13;10.26;78.13
75457;SHT31;64036;48.266;14.192;2023-03-14T06:31:39;10.36;78.10
75457;SHT31;64036;48.266;14.192;2023-03-14T06:34:05;10.41;78.12
75457;SHT31;64036;48.266;14.192;2023-03-14T06:36:30;10.44;78.15
75457;SHT31;64036;48.266;14.192;2023-03-14T06:38:56;10.46;78.20
75457;SHT31;64036;48.266;14.192;2023-03-14T06:41:22;10.48;78.20
75457;SHT31;64036;48.266;14.192;2023-03-14T06:43:51;10.51;78.20
75457;SHT31;64036;48.266;14.192;2023-03-14T06:46:16;10.53;78.20
75457;SHT31;64036;48.266;14.192;2023-03-14T06:48:42;10.54;78.20
75457;SHT31;64036;48.266;14.192;2023-03-14T06:51:08;10.54;78.14
75457;SHT31;64036;48.266;14.192;2023-03-14T06:53:34;10.54;78.10
75457;SHT31;64036;48.266;14.192;2023-03-14T06:56:00;10.53;78.12
75457;SHT31;64036;48.266;14.192;2023-03-14T06:58:25;10.53;78.11
75457;SHT31;64036;48.266;14.192;2023-03-14T07:00:52;10.52;78.16
75457;SHT31;64036;48.266;14.192;2023-03-14T07:03:19;10.52;78.20
75457;SHT31;64036;48.266;14.192;2023-03-14T07:05:45;10.52;78.25
75457;SHT31;64036;48.266;14.192;2023-03-14T07:08:11;10.54;78.29
75457;SHT31;64036;48.266;14.192;2023-03-14T07:10:37;10.56;78.31
75457;SHT31;64036;48.266;14.192;2023-03-14T07:13:03;10.58;78.25
75457;SHT31;64036;48.266;14.192;2023-03-14T07:15:29;10.60;78.20
75457;SHT31;64036;48.266;14.192;2023-03-14T07:17:55;10.62;78.20
75457;SHT31;64036;48.266;14.192;2023-03-14T07:20:21;10.68;78.13
75457;SHT31;64036;48.266;14.192;2023-03-14T07:22:48;10.73;78.00
75457;SHT31;64036;48.266;14.192;2023-03-14T07:25:14;10.78;77.90
75457;SHT31;64036;48.266;14.192;2023-03-14T07:27:42;10.85;77.90
75457;SHT31;64036;48.266;14.192;2023-03-14T07:30:10;10.90;77.89
75457;SHT31;64036;48.266;14.192;2023-03-14T07:32:36;10.92;77.83
75457;SHT31;64036;48.266;14.192;2023-03-14T07:35:02;10.92;77.80
75457;SHT31;64036;48.266;14.192;2023-03-14T07:37:29;10.94;77.70
75457;SHT31;64036;48.266;14.192;2023-03-14T07:39:54;10.94;77.61
75457;SHT31;64036;48.266;14.192;2023-03-14T07:42:20;10.97;77.39
75457;SHT31;64036;48.266;14.192;2023-03-14T07:44:46;10.98;77.23
75457;SHT31;64036;48.266;14.192;2023-03-14T07:47:12;10.98;77.19
75457;SHT31;64036;48.266;14.192;2023-03-14T07:49:37;10.96;77.17
75457;SHT31;64036;48.266;14.192;2023-03-14T07:52:03;10.95;77.11
75457;SHT31;64036;48.266;14.192;2023-03-14T07:54:29;10.94;77.17
75457;SHT31;64036;48.266;14.192;2023-03-14T07:56:55;10.94;77.20
75457;SHT31;64036;48.266;14.192;2023-03-14T07:59:20;10.93;77.20
75457;SHT31;64036;48.266;14.192;2023-03-14T08:01:46;10.92;77.20
75457;SHT31;64036;48.266;14.192;2023-03-14T08:04:12;10.94;77.21
75457;SHT31;64036;48.266;14.192;2023-03-14T08:06:38;10.92;77.20
75457;SHT31;64036;48.266;14.192;2023-03-14T08:09:04;10.93;77.20
75457;SHT31;64036;48.266;14.192;2023-03-14T08:11:30;10.93;77.21
75457;SHT31;64036;48.266;14.192;2023-03-14T08:13:55;10.93;77.21
75457;SHT31;64036;48.266;14.192;2023-03-14T08:16:21;10.94;77.25
75457;SHT31;64036;48.266;14.192;2023-03-14T08:18:47;10.94;77.23
75457;SHT31;64036;48.266;14.192;2023-03-14T08:21:13;10.95;77.23
75457;SHT31;64036;48.266;14.192;2023-03-14T08:23:39;10.94;77.20
75457;SHT31;64036;48.266;14.192;2023-03-14T08:26:05;10.93;77.23
75457;SHT31;64036;48.266;14.192;2023-03-14T08:28:31;10.92;77.27
75457;SHT31;64036;48.266;14.192;2023-03-14T08:30:58;10.93;77.20
75457;SHT31;64036;48.266;14.192;2023-03-14T08:33:26;10.91;77.12
75457;SHT31;64036;48.266;14.192;2023-03-14T08:35:57;10.91;77.05
75457;SHT31;64036;48.266;14.192;2023-03-14T08:38:25;10.90;76.90
75457;SHT31;64036;48.266;14.192;2023-03-14T08:40:55;10.89;76.78
75457;SHT31;64036;48.266;14.192;2023-03-14T08:43:22;10.82;76.66
75457;SHT31;64036;48.266;14.192;2023-03-14T08:45:48;10.71;76.73
75457;SHT31;64036;48.266;14.192;2023-03-14T08:48:13;10.65;76.76
75457;SHT31;64036;48.266;14.192;2023-03-14T08:50:39;10.61;76.75
75457;SHT31;64036;48.266;14.192;2023-03-14T08:53:05;10.62;76.67
75457;SHT31;64036;48.266;14.192;2023-03-14T08:55:31;10.64;76.57
75457;SHT31;64036;48.266;14.192;2023-03-14T08:57:57;10.65;76.42
75457;SHT31;64036;48.266;14.192;2023-03-14T09:00:22;10.64;76.36
75457;SHT31;64036;48.266;14.192;2023-03-14T09:02:48;10.64;76.44
75457;SHT31;64036;48.266;14.192;2023-03-14T09:05:14;10.64;76.34
75457;SHT31;64036;48.266;14.192;2023-03-14T09:07:40;10.66;76.16
75457;SHT31;64036;48.266;14.192;2023-03-14T09:10:08;10.67;75.98
75457;SHT31;64036;48.266;14.192;2023-03-14T09:12:34;10.67;75.91
75457;SHT31;64036;48.266;14.192;2023-03-14T09:15:00;10.67;75.89
75457;SHT31;64036;48.266;14.192;2023-03-14T09:17:27;10.64;75.10
75457;SHT31;64036;48.266;14.192;2023-03-14T09:19:52;10.60;75.05
75457;SHT31;64036;48.266;14.192;2023-03-14T09:22:18;10.57;75.37
75457;SHT31;64036;48.266;14.192;2023-03-14T09:24:45;10.55;75.65
75457;SHT31;64036;48.266;14.192;2023-03-14T09:27:11;10.54;75.84
75457;SHT31;64036;48.266;14.192;2023-03-14T09:29:37;10.51;75.99
75457;SHT31;64036;48.266;14.192;2023-03-14T09:32:03;10.50;76.11
75457;SHT31;64036;48.266;14.192;2023-03-14T09:34:29;10.52;76.10
75457;SHT31;64036;48.266;14.192;2023-03-14T09:36:54;10.53;76.10
75457;SHT31;64036;48.266;14.192;2023-03-14T09:39:20;10.55;76.07
75457;SHT31;64036;48.266;14.192;2023-03-14T09:41:47;10.56;75.97
75457;SHT31;64036;48.266;14.192;2023-03-14T09:44:29;10.56;75.99
75457;SHT31;64036;48.266;14.192;2023-03-14T09:47:03;10.54;75.95
75457;SHT31;64036;48.266;14.192;2023-03-14T09:49:32;10.52;76.03
75457;SHT31;64036;48.266;14.192;2023-03-14T09:51:59;10.54;76.12
75457;SHT31;64036;48.266;14.192;2023-03-14T09:57:14;10.63;76.00
75457;SHT31;64036;48.266;14.192;2023-03-14T09:59:44;10.68;75.90
75457;SHT31;64036;48.266;14.192;2023-03-14T10:02:22;10.70;75.82
75457;SHT31;64036;48.266;14.192;2023-03-14T10:04:51;10.73;75.84
75457;SHT31;64036;48.266;14.192;2023-03-14T10:07:28;10.78;75.86
75457;SHT31;64036;48.266;14.192;2023-03-14T10:09:57;10.82;75.80
75457;SHT31;64036;48.266;14.192;2023-03-14T10:12:30;10.86;75.71
75457;SHT31;64036;48.266;14.192;2023-03-14T10:15:01;10.88;75.71
75457;SHT31;64036;48.266;14.192;2023-03-14T10:17:39;10.93;75.50
75457;SHT31;64036;48.266;14.192;2023-03-14T10:20:05;10.98;75.35
75457;SHT31;64036;48.266;14.192;2023-03-14T10:22:31;11.02;75.08
75457;SHT31;64036;48.266;14.192;2023-03-14T10:25:02;11.03;75.03
75457;SHT31;64036;48.266;14.192;2023-03-14T10:27:33;11.08;74.94
75457;SHT31;64036;48.266;14.192;2023-03-14T10:30:05;11.12;74.95
75457;SHT31;64036;48.266;14.192;2023-03-14T10:32:34;11.16;74.80
75457;SHT31;64036;48.266;14.192;2023-03-14T10:38:00;11.20;74.47
75457;SHT31;64036;48.266;14.192;2023-03-14T10:40:31;11.18;74.53
75457;SHT31;64036;48.266;14.192;2023-03-14T10:43:03;11.18;74.45
75457;SHT31;64036;48.266;14.192;2023-03-14T10:45:38;11.16;74.51
75457;SHT31;64036;48.266;14.192;2023-03-14T10:48:51;11.12;74.30
75457;SHT31;64036;48.266;14.192;2023-03-14T10:51:06;11.10;74.26
75457;SHT31;64036;48.266;14.192;2023-03-14T10:53:48;11.08;74.14
75457;SHT31;64036;48.266;14.192;2023-03-14T10:56:22;11.06;74.10
75457;SHT31;64036;48.266;14.192;2023-03-14T10:58:51;11.07;74.09
75457;SHT31;64036;48.266;14.192;2023-03-14T11:07:28;10.93;74.00
75457;SHT31;64036;48.266;14.192;2023-03-14T11:19:03;10.89;73.59
75457;SHT31;64036;48.266;14.192;2023-03-14T11:21:43;10.91;73.44
75457;SHT31;64036;48.266;14.192;2023-03-14T11:27:18;11.01;73.47
75457;SHT31;64036;48.266;14.192;2023-03-14T11:29:55;11.08;73.32
75457;SHT31;64036;48.266;14.192;2023-03-14T11:41:33;11.40;72.75
75457;SHT31;64036;48.266;14.192;2023-03-14T11:44:27;11.45;72.46
75457;SHT31;64036;48.266;14.192;2023-03-14T11:49:36;11.53;72.08
75457;SHT31;64036;48.266;14.192;2023-03-14T11:52:12;11.59;71.98
75457;SHT31;64036;48.266;14.192;2023-03-14T11:54:45;11.62;71.84
75457;SHT31;64036;48.266;14.192;2023-03-14T11:57:18;11.67;71.78
75457;SHT31;64036;48.266;14.192;2023-03-14T12:00:12;11.70;71.27
75457;SHT31;64036;48.266;14.192;2023-03-14T12:16:52;12.02;70.26
75457;SHT31;64036;48.266;14.192;2023-03-14T12:21:48;12.04;69.97
75457;SHT31;64036;48.266;14.192;2023-03-14T12:24:23;12.05;69.94
75457;SHT31;64036;48.266;14.192;2023-03-14T12:27:00;12.01;69.86
75457;SHT31;64036;48.266;14.192;2023-03-14T12:29:28;11.97;69.82
75457;SHT31;64036;48.266;14.192;2023-03-14T12:34:40;12.02;69.40
75457;SHT31;64036;48.266;14.192;2023-03-14T12:37:14;12.05;69.11
75457;SHT31;64036;48.266;14.192;2023-03-14T12:42:54;12.14;68.96
75457;SHT31;64036;48.266;14.192;2023-03-14T12:48:00;12.31;68.49
75457;SHT31;64036;48.266;14.192;2023-03-14T12:51:00;12.38;68.64
75457;SHT31;64036;48.266;14.192;2023-03-14T13:02:22;12.65;67.72
75457;SHT31;64036;48.266;14.192;2023-03-14T13:12:43;12.69;67.50
75457;SHT31;64036;48.266;14.192;2023-03-14T13:15:25;12.75;67.99
75457;SHT31;64036;48.266;14.192;2023-03-14T13:17:56;12.77;67.90
75457;SHT31;64036;48.266;14.192;2023-03-14T13:20:37;12.81;67.93
75457;SHT31;64036;48.266;14.192;2023-03-14T13:23:26;12.82;67.50
75457;SHT31;64036;48.266;14.192;2023-03-14T13:25:56;12.77;67.26
75457;SHT31;64036;48.266;14.192;2023-03-14T13:28:22;12.63;67.08
75457;SHT31;64036;48.266;14.192;2023-03-14T13:30:49;12.45;67.39
75457;SHT31;64036;48.266;14.192;2023-03-14T13:33:21;12.35;67.44
75457;SHT31;64036;48.266;14.192;2023-03-14T13:35:55;12.30;67.63
75457;SHT31;64036;48.266;14.192;2023-03-14T13:38:33;12.24;67.86
75457;SHT31;64036;48.266;14.192;2023-03-14T13:41:05;12.23;68.17
75457;SHT31;64036;48.266;14.192;2023-03-14T13:43:34;12.19;68.06
75457;SHT31;64036;48.266;14.192;2023-03-14T13:46:02;12.09;67.99
75457;SHT31;64036;48.266;14.192;2023-03-14T13:48:48;11.99;67.81
75457;SHT31;64036;48.266;14.192;2023-03-14T13:51:19;11.92;67.92
75457;SHT31;64036;48.266;14.192;2023-03-14T13:53:47;11.85;68.12
75457;SHT31;64036;48.266;14.192;2023-03-14T13:56:16;11.80;68.31
75457;SHT31;64036;48.266;14.192;2023-03-14T13:58:44;11.77;68.54
75457;SHT31;64036;48.266;14.192;2023-03-14T14:01:12;11.73;68.70
75457;SHT31;64036;48.266;14.192;2023-03-14T14:03:44;11.77;68.86
75457;SHT31;64036;48.266;14.192;2023-03-14T14:06:27;11.78;68.76
75457;SHT31;64036;48.266;14.192;2023-03-14T14:09:01;11.80;68.89
75457;SHT31;64036;48.266;14.192;2023-03-14T14:14:34;11.81;68.90
75457;SHT31;64036;48.266;14.192;2023-03-14T14:17:15;11.84;68.74
75457;SHT31;64036;48.266;14.192;2023-03-14T14:19:49;11.92;68.83
75457;SHT31;64036;48.266;14.192;2023-03-14T14:22:16;12.02;68.66
75457;SHT31;64036;48.266;14.192;2023-03-14T14:24:43;12.07;68.56
75457;SHT31;64036;48.266;14.192;2023-03-14T14:27:18;12.18;68.45
75457;SHT31;64036;48.266;14.192;2023-03-14T14:29:58;12.28;68.60
75457;SHT31;64036;48.266;14.192;2023-03-14T14:32:34;12.41;68.26
75457;SHT31;64036;48.266;14.192;2023-03-14T14:35:04;12.55;67.74
75457;SHT31;64036;48.266;14.192;2023-03-14T14:37:33;12.59;67.75
75457;SHT31;64036;48.266;14.192;2023-03-14T14:40:08;12.58;67.52
75457;SHT31;64036;48.266;14.192;2023-03-14T14:42:39;12.57;67.18
75457;SHT31;64036;48.266;14.192;2023-03-14T14:45:07;12.55;66.96
75457;SHT31;64036;48.266;14.192;2023-03-14T14:47:48;12.53;67.01
75457;SHT31;64036;48.266;14.192;2023-03-14T14:53:21;12.46;66.97
75457;SHT31;64036;48.266;14.192;2023-03-14T14:55:56;12.41;66.85
75457;SHT31;64036;48.266;14.192;2023-03-14T14:58:29;12.39;66.80
75457;SHT31;64036;48.266;14.192;2023-03-14T15:01:04;12.36;66.96
75457;SHT31;64036;48.266;14.192;2023-03-14T15:03:35;12.38;66.84
75457;SHT31;64036;48.266;14.192;2023-03-14T15:06:01;12.45;66.79
75457;SHT31;64036;48.266;14.192;2023-03-14T15:08:28;12.55;66.89
75457;SHT31;64036;48.266;14.192;2023-03-14T15:10:55;12.68;66.78
75457;SHT31;64036;48.266;14.192;2023-03-14T15:13:22;12.82;66.76
75457;SHT31;64036;48.266;14.192;2023-03-14T15:15:49;12.97;66.59
75457;SHT31;64036;48.266;14.192;2023-03-14T15:18:21;13.09;66.40
75457;SHT31;64036;48.266;14.192;2023-03-14T15:20:49;13.13;66.06
75457;SHT31;64036;48.266;14.192;2023-03-14T15:23:17;13.15;66.04
75457;SHT31;64036;48.266;14.192;2023-03-14T15:25:44;13.13;66.12
75457;SHT31;64036;48.266;14.192;2023-03-14T15:28:26;13.07;65.93
75457;SHT31;64036;48.266;14.192;2023-03-14T15:30:57;13.03;65.90
75457;SHT31;64036;48.266;14.192;2023-03-14T15:33:24;12.97;65.99
75457;SHT31;64036;48.266;14.192;2023-03-14T15:35:51;12.85;66.14
75457;SHT31;64036;48.266;14.192;2023-03-14T15:38:20;12.73;66.24
75457;SHT31;64036;48.266;14.192;2023-03-14T15:40:48;12.56;66.22
75457;SHT31;64036;48.266;14.192;2023-03-14T15:43:15;12.43;66.57
75457;SHT31;64036;48.266;14.192;2023-03-14T15:45:43;12.30;66.86
75457;SHT31;64036;48.266;14.192;2023-03-14T15:48:13;12.26;67.18
75457;SHT31;64036;48.266;14.192;2023-03-14T15:50:44;12.23;67.36
75457;SHT31;64036;48.266;14.192;2023-03-14T15:53:10;12.13;67.41
75457;SHT31;64036;48.266;14.192;2023-03-14T15:55:36;12.02;67.60
75457;SHT31;64036;48.266;14.192;2023-03-14T15:58:02;11.94;67.80
75457;SHT31;64036;48.266;14.192;2023-03-14T16:00:28;11.87;68.00
75457;SHT31;64036;48.266;14.192;2023-03-14T16:02:55;11.80;68.37
75457;SHT31;64036;48.266;14.192;2023-03-14T16:05:21;11.77;68.76
75457;SHT31;64036;48.266;14.192;2023-03-14T16:07:47;11.70;68.96
75457;SHT31;64036;48.266;14.192;2023-03-14T16:10:14;11.65;69.17
75457;SHT31;64036;48.266;14.192;2023-03-14T16:12:40;11.62;69.38
75457;SHT31;64036;48.266;14.192;2023-03-14T16:15:07;11.56;69.45
75457;SHT31;64036;48.266;14.192;2023-03-14T16:17:34;11.52;69.53
75457;SHT31;64036;48.266;14.192;2023-03-14T16:20:02;11.48;69.77
75457;SHT31;64036;48.266;14.192;2023-03-14T16:22:30;11.43;70.02
75457;SHT31;64036;48.266;14.192;2023-03-14T16:25:01;11.42;69.83
75457;SHT31;64036;48.266;14.192;2023-03-14T16:27:31;11.41;69.46
75457;SHT31;64036;48.266;14.192;2023-03-14T16:29:58;11.41;69.33
75457;SHT31;64036;48.266;14.192;2023-03-14T16:32:24;11.39;69.37
75457;SHT31;64036;48.266;14.192;2023-03-14T16:34:51;11.37;69.61
75457;SHT31;64036;48.266;14.192;2023-03-14T16:37:17;11.35;69.72
75457;SHT31;64036;48.266;14.192;2023-03-14T16:39:42;11.30;69.99
75457;SHT31;64036;48.266;14.192;2023-03-14T16:42:08;11.22;70.20
75457;SHT31;64036;48.266;14.192;2023-03-14T16:44:34;11.17;70.70
75457;SHT31;64036;48.266;14.192;2023-03-14T16:46:59;11.11;70.94
75457;SHT31;64036;48.266;14.192;2023-03-14T16:49:25;11.06;71.09
75457;SHT31;64036;48.266;14.192;2023-03-14T16:51:51;11.02;71.32
75457;SHT31;64036;48.266;14.192;2023-03-14T16:54:16;10.95;72.05
75457;SHT31;64036;48.266;14.192;2023-03-14T16:56:42;10.87;72.84
75457;SHT31;64036;48.266;14.192;2023-03-14T16:59:09;10.75;73.42
75457;SHT31;64036;48.266;14.192;2023-03-14T17:01:35;10.63;73.71
75457;SHT31;64036;48.266;14.192;2023-03-14T17:04:02;10.48;73.70
75457;SHT31;64036;48.266;14.192;2023-03-14T17:06:28;10.37;74.07